createdAt,value
2018-11-10T00:00:02.269Z,4.97
2018-11-10T00:02:30.766Z,2.83
2018-11-10T00:04:59.177Z,3.20
2018-11-10T00:07:27.614Z,2.13
2018-11-10T00:09:56.030Z,2.80
2018-11-10T00:12:24.462Z,2.17
2018-11-10T00:14:52.897Z,2.63
2018-11-10T00:17:21.360Z,2.53
2018-11-10T00:19:49.833Z,2.70
2018-11-10T00:22:18.260Z,2.27
2018-11-10T00:24:46.953Z,2.37
2018-11-10T00:27:15.389Z,2.80
2018-11-10T00:29:43.821Z,2.27
2018-11-10T00:32:12.285Z,3.57
2018-11-10T00:34:40.821Z,2.33
2018-11-10T00:37:09.201Z,2.20
2018-11-10T00:39:37.657Z,1.93
2018-11-10T00:42:06.608Z,2.50
2018-11-10T00:44:35.061Z,2.20
2018-11-10T00:47:03.545Z,2.50
2018-11-10T00:49:32.007Z,2.77
2018-11-10T00:52:00.601Z,2.63
2018-11-10T00:54:29.174Z,2.20
2018-11-10T00:56:57.607Z,2.00
2018-11-10T00:59:26.109Z,2.27
2018-11-10T01:01:54.577Z,2.20
2018-11-10T01:04:23.065Z,1.97
2018-11-10T01:06:51.514Z,2.10
2018-11-10T01:09:19.997Z,2.30
2018-11-10T01:11:48.430Z,1.97
2018-11-10T01:14:16.886Z,2.10
2018-11-10T01:16:45.356Z,2.07
2018-11-10T01:19:13.772Z,2.47
2018-11-10T01:21:42.201Z,2.37
2018-11-10T01:24:10.658Z,2.80
2018-11-10T01:26:39.109Z,2.10
2018-11-10T01:29:08.029Z,2.73
2018-11-10T01:31:36.457Z,2.10
2018-11-10T01:34:05.073Z,3.00
2018-11-10T01:36:33.518Z,2.87
2018-11-10T01:39:03.014Z,3.00
2018-11-10T01:41:31.461Z,2.40
2018-11-10T01:43:59.925Z,2.50
2018-11-10T01:46:28.345Z,2.77
2018-11-10T01:48:56.788Z,3.20
2018-11-10T01:51:25.236Z,2.70
2018-11-10T01:53:53.704Z,2.70
2018-11-10T01:56:22.121Z,2.87
2018-11-10T01:58:50.588Z,2.70
2018-11-10T02:01:19.026Z,3.10
2018-11-10T02:03:47.482Z,3.07
2018-11-10T02:06:15.909Z,3.17
2018-11-10T02:08:44.380Z,2.93
2018-11-10T02:11:12.937Z,3.30
2018-11-10T02:13:41.390Z,3.00
2018-11-10T02:16:09.801Z,4.43
2018-11-10T02:18:38.236Z,4.37
2018-11-10T02:21:06.716Z,4.17
2018-11-10T02:23:35.206Z,4.87
2018-11-10T02:26:03.721Z,4.00
2018-11-10T02:28:32.216Z,3.67
2018-11-10T02:31:00.648Z,3.60
2018-11-10T02:33:29.094Z,3.20
2018-11-10T02:35:57.558Z,3.30
2018-11-10T02:38:26.084Z,3.10
2018-11-10T02:40:54.522Z,3.10
2018-11-10T02:43:22.936Z,3.00
2018-11-10T02:45:51.450Z,3.27
2018-11-10T02:48:19.870Z,3.13
2018-11-10T02:50:48.318Z,3.00
2018-11-10T02:53:16.762Z,3.70
2018-11-10T02:55:45.189Z,3.27
2018-11-10T02:58:13.662Z,2.83
2018-11-10T03:00:42.091Z,3.20
2018-11-10T03:03:10.542Z,2.83
2018-11-10T03:05:38.977Z,2.70
2018-11-10T03:08:07.440Z,3.10
2018-11-10T03:10:35.929Z,2.90
2018-11-10T03:13:04.381Z,2.77
2018-11-10T03:15:32.796Z,3.30
2018-11-10T03:18:01.848Z,3.00
2018-11-10T03:20:30.313Z,3.13
2018-11-10T03:22:58.729Z,3.17
2018-11-10T03:25:27.122Z,2.60
2018-11-10T03:27:55.545Z,2.90
2018-11-10T03:30:24.009Z,3.00
2018-11-10T03:32:52.449Z,3.13
2018-11-10T03:35:20.877Z,3.03
2018-11-10T03:37:49.315Z,2.83
2018-11-10T03:40:17.750Z,3.60
2018-11-10T03:42:46.198Z,2.20
2018-11-10T03:45:14.654Z,2.63
2018-11-10T03:47:43.098Z,3.30
2018-11-10T03:50:12.164Z,3.20
2018-11-10T03:52:40.713Z,2.37
2018-11-10T03:55:09.745Z,2.73
2018-11-10T03:57:38.189Z,2.70
2018-11-10T04:00:09.797Z,2.50
2018-11-10T04:02:38.659Z,2.70
2018-11-10T04:05:07.984Z,2.70
2018-11-10T04:07:36.428Z,3.03
2018-11-10T04:10:05.724Z,2.70
2018-11-10T04:12:34.256Z,3.00
2018-11-10T04:15:02.793Z,3.23
2018-11-10T04:17:31.266Z,2.43
2018-11-10T04:19:59.687Z,2.87
2018-11-10T04:22:33.602Z,2.50
2018-11-10T04:25:02.897Z,3.00
2018-11-10T04:27:31.899Z,2.93
2018-11-10T04:30:00.580Z,2.17
2018-11-10T04:32:29.054Z,2.30
2018-11-10T04:34:57.522Z,1.80
2018-11-10T04:37:26.509Z,2.50
2018-11-10T04:39:54.996Z,2.77
2018-11-10T04:42:23.481Z,2.30
2018-11-10T04:44:51.921Z,2.30
2018-11-10T04:47:20.370Z,2.30
2018-11-10T04:49:48.835Z,2.30
2018-11-10T04:52:17.276Z,2.60
2018-11-10T04:54:45.694Z,2.67
2018-11-10T04:57:14.143Z,2.10
2018-11-10T04:59:42.577Z,2.90
2018-11-10T05:02:10.993Z,2.30
2018-11-10T05:04:39.472Z,2.30
2018-11-10T05:07:07.973Z,2.73
2018-11-10T05:09:36.424Z,3.00
2018-11-10T05:12:05.190Z,2.83
2018-11-10T05:14:33.650Z,2.80
2018-11-10T05:17:02.096Z,2.60
2018-11-10T05:19:30.548Z,2.50
2018-11-10T05:21:59.024Z,2.67
2018-11-10T05:24:27.833Z,3.00
2018-11-10T05:26:56.240Z,2.90
2018-11-10T05:29:24.676Z,2.67
2018-11-10T05:31:53.132Z,2.80
2018-11-10T05:34:21.578Z,2.97
2018-11-10T05:36:50.039Z,3.23
2018-11-10T05:39:18.521Z,2.80
2018-11-10T05:41:46.940Z,2.80
2018-11-10T05:44:15.365Z,2.50
2018-11-10T05:46:43.809Z,2.50
2018-11-10T05:49:12.260Z,2.83
2018-11-10T05:51:40.689Z,2.97
2018-11-10T05:54:09.124Z,3.00
2018-11-10T05:56:37.529Z,2.63
2018-11-10T05:59:06.315Z,3.00
2018-11-10T06:01:34.753Z,2.87
2018-11-10T06:04:03.246Z,2.97
2018-11-10T06:06:31.668Z,3.03
2018-11-10T06:09:00.190Z,2.47
2018-11-10T06:11:28.582Z,3.70
2018-11-10T06:13:57.034Z,2.40
2018-11-10T06:16:25.459Z,2.90
2018-11-10T06:18:53.981Z,3.03
2018-11-10T06:21:22.355Z,2.77
2018-11-10T06:23:50.812Z,2.63
2018-11-10T06:26:19.282Z,2.57
2018-11-10T06:28:47.843Z,2.53
2018-11-10T06:31:16.337Z,2.00
2018-11-10T06:33:44.815Z,2.00
2018-11-10T06:36:13.283Z,2.23
2018-11-10T06:38:41.722Z,1.87
2018-11-10T06:41:10.189Z,2.10
2018-11-10T06:43:38.641Z,1.80
2018-11-10T06:46:07.084Z,2.10
2018-11-10T06:48:35.517Z,2.17
2018-11-10T06:51:03.990Z,1.60
2018-11-10T06:53:32.454Z,2.80
2018-11-10T06:56:04.183Z,2.00
2018-11-10T06:58:32.632Z,2.17
2018-11-10T07:01:01.078Z,1.90
2018-11-10T07:03:29.629Z,1.67
2018-11-10T07:05:58.034Z,1.50
2018-11-10T07:08:26.517Z,1.63
2018-11-10T07:10:54.955Z,2.00
2018-11-10T07:13:23.409Z,1.60
2018-11-10T07:15:51.871Z,1.53
2018-11-10T07:18:20.304Z,1.57
2018-11-10T07:20:48.727Z,1.80
2018-11-10T07:23:18.496Z,2.03
2018-11-10T07:25:47.705Z,1.90
2018-11-10T07:28:16.151Z,1.50
2018-11-10T07:30:44.630Z,1.87
2018-11-10T07:33:13.062Z,1.73
2018-11-10T07:35:41.514Z,2.43
2018-11-10T07:38:10.096Z,1.93
2018-11-10T07:40:38.531Z,1.77
2018-11-10T07:43:07.069Z,1.60
2018-11-10T07:45:35.538Z,2.10
2018-11-10T07:48:04.003Z,1.60
2018-11-10T07:50:32.425Z,2.70
2018-11-10T07:53:00.865Z,1.70
2018-11-10T21:40:28.460Z,1.00
2018-11-10T21:42:56.891Z,1.10
2018-11-10T21:45:25.333Z,1.20
2018-11-10T21:47:53.749Z,2.07
2018-11-10T21:50:22.182Z,1.10
2018-11-10T21:52:50.606Z,1.00
2018-11-10T21:55:19.859Z,1.10
2018-11-10T21:57:48.821Z,1.23
2018-11-10T22:00:18.970Z,0.90
2018-11-10T22:02:47.653Z,1.10
2018-11-10T22:05:16.114Z,1.30
2018-11-10T22:07:44.545Z,1.10
2018-11-10T22:10:14.465Z,1.30
2018-11-10T22:12:43.218Z,1.00
2018-11-10T22:15:14.265Z,1.30
2018-11-10T22:17:43.651Z,0.97
2018-11-10T22:20:13.661Z,0.87
2018-11-10T22:22:42.187Z,1.00
2018-11-10T22:25:11.541Z,0.97
2018-11-10T22:27:41.384Z,1.23
2018-11-10T22:30:11.719Z,1.40
2018-11-10T22:32:40.277Z,0.90
2018-11-10T22:35:09.341Z,1.17
2018-11-10T22:37:38.176Z,1.10
2018-11-10T22:40:08.266Z,1.40
2018-11-10T22:42:37.577Z,1.00
2018-11-10T22:45:06.744Z,1.20
2018-11-10T22:47:35.180Z,1.00
2018-11-10T22:50:03.933Z,1.20
2018-11-10T22:52:32.360Z,1.10
2018-11-10T22:55:00.808Z,1.53
2018-11-10T22:57:29.250Z,1.47
2018-11-10T22:59:57.708Z,1.23
2018-11-10T23:02:26.124Z,0.90
2018-11-10T23:04:54.535Z,1.20
2018-11-10T23:07:22.960Z,1.23
2018-11-10T23:09:51.408Z,1.03
2018-11-10T23:12:19.865Z,1.27
2018-11-10T23:14:48.285Z,1.33
2018-11-10T23:17:16.782Z,1.10
2018-11-10T23:19:45.192Z,1.50
2018-11-10T23:22:13.617Z,1.10
2018-11-10T23:24:42.022Z,1.43
2018-11-10T23:27:11.530Z,1.40
2018-11-10T23:29:39.948Z,1.20
2018-11-10T23:32:08.386Z,1.20
2018-11-10T23:34:37.667Z,1.27
2018-11-10T23:37:06.213Z,0.80
2018-11-10T23:39:34.627Z,1.43
2018-11-10T23:42:03.077Z,1.03
2018-11-10T23:44:31.494Z,1.40
2018-11-10T23:46:59.945Z,1.27
2018-11-10T23:49:28.352Z,0.93
2018-11-10T23:51:56.790Z,1.33
2018-11-10T23:54:25.240Z,1.07
2018-11-10T23:56:53.698Z,0.90
